Time;durP1;ratioP1;P1;durP2;ratioP2;P2;SDS_P1;SDS_P2;PMS_P1;PMS_P2;Temp;Humidity;BMP_temperature;BMP_pressure;BME280_temperature;BME280_humidity;BME280_pressure;Samples;Min_cycle;Max_cycle;Signal;HPM_P1;HPM_P2
2022/05/04 00:01:31;;;;;;;;;;;21.50;54.40;;;;;;5041133;28;19913;-55
2022/05/04 00:03:56;;;;;;;;;;;21.50;54.40;;;;;;5041323;28;19947;-55
2022/05/04 00:06:22;;;;;;;;;;;21.50;54.40;;;;;;5041395;28;19913;-56
2022/05/04 00:08:47;;;;;;;;;;;21.50;54.40;;;;;;5040746;28;19913;-56
2022/05/04 00:11:13;;;;;;;;;;;21.50;54.50;;;;;;5023856;28;20165;-54
2022/05/04 00:13:38;;;;;;;;;;;21.50;54.40;;;;;;5022490;28;19913;-49
2022/05/04 00:16:04;;;;;;;;;;;21.50;54.40;;;;;;5040868;28;19916;-52
2022/05/04 00:18:30;;;;;;;;;;;21.50;54.40;;;;;;5040345;28;19941;-54
2022/05/04 00:20:55;;;;;;;;;;;21.50;54.40;;;;;;5041014;28;19913;-54
2022/05/04 00:23:21;;;;;;;;;;;21.50;54.40;;;;;;5042017;28;19917;-54
2022/05/04 00:25:46;;;;;;;;;;;21.50;54.40;;;;;;5042634;28;19913;-56
2022/05/04 00:28:12;;;;;;;;;;;21.50;54.40;;;;;;5041924;28;19919;-55
2022/05/04 00:30:37;;;;;;;;;;;21.50;54.40;;;;;;5041687;28;19940;-56
2022/05/04 00:33:03;;;;;;;;;;;21.50;54.40;;;;;;5042447;28;19919;-55
2022/05/04 00:35:28;;;;;;;;;;;21.50;54.40;;;;;;5041914;28;20546;-55
2022/05/04 00:37:53;;;;;;;;;;;21.50;54.30;;;;;;5041324;28;19918;-57
2022/05/04 00:40:19;;;;;;;;;;;21.50;54.30;;;;;;5041153;28;19912;-56
2022/05/04 00:42:44;;;;;;;;;;;21.50;54.30;;;;;;5040915;28;20129;-56
2022/05/04 00:45:10;;;;;;;;;;;21.50;54.30;;;;;;5040748;28;20468;-53
2022/05/04 00:47:35;;;;;;;;;;;21.50;54.30;;;;;;5040669;28;19934;-57
2022/05/04 00:50:04;;;;;;;;;;;21.50;54.30;;;;;;5040136;28;19916;-57
2022/05/04 00:52:32;;;;;;;;;;;21.50;54.30;;;;;;5007001;28;19920;-56
2022/05/04 00:54:58;;;;;;;;;;;21.50;54.30;;;;;;5041229;28;19912;-56
2022/05/04 01:00:08;;;;;;;;;;;21.50;54.20;;;;;;5038864;28;20050;-55
2022/05/04 01:02:33;;;;;;;;;;;21.40;54.10;;;;;;5040282;28;20004;-55
2022/05/04 01:04:59;;;;;;;;;;;21.40;54.10;;;;;;5040576;28;19913;-55
2022/05/04 01:07:24;;;;;;;;;;;21.50;54.20;;;;;;5040845;28;19913;-55
2022/05/04 01:09:50;;;;;;;;;;;21.40;54.10;;;;;;5039692;28;19946;-55
2022/05/04 01:12:15;;;;;;;;;;;21.40;54.10;;;;;;5022783;28;19917;-57
2022/05/04 01:14:41;;;;;;;;;;;21.40;54.10;;;;;;5040806;28;19913;-55
2022/05/04 01:17:06;;;;;;;;;;;21.40;54.10;;;;;;5022214;28;19940;-53
2022/05/04 01:19:32;;;;;;;;;;;21.50;54.10;;;;;;5040133;28;19921;-58
2022/05/04 01:21:57;;;;;;;;;;;21.40;54.10;;;;;;5040201;28;20301;-56
2022/05/04 01:24:23;;;;;;;;;;;21.40;54.10;;;;;;5040063;28;19966;-53
2022/05/04 01:26:48;;;;;;;;;;;21.40;54.10;;;;;;5039752;28;19924;-55
2022/05/04 01:29:14;;;;;;;;;;;21.40;54.10;;;;;;5039281;28;19913;-55
2022/05/04 01:31:40;;;;;;;;;;;21.40;54.10;;;;;;5040413;28;20334;-57
2022/05/04 01:34:05;;;;;;;;;;;21.40;54.10;;;;;;5039904;28;20358;-57
2022/05/04 01:36:30;;;;;;;;;;;21.40;54.10;;;;;;5006119;28;19917;-58
2022/05/04 01:38:56;;;;;;;;;;;21.40;54.10;;;;;;5039286;28;19913;-58
2022/05/04 01:44:06;;;;;;;;;;;21.40;54.00;;;;;;5039841;28;19920;-57
2022/05/04 01:46:31;;;;;;;;;;;21.40;54.00;;;;;;5039482;28;19913;-57
2022/05/04 01:48:57;;;;;;;;;;;21.40;54.00;;;;;;5038774;28;19913;-57
2022/05/04 01:51:22;;;;;;;;;;;21.40;54.00;;;;;;5039013;28;19913;-57
2022/05/04 01:53:47;;;;;;;;;;;21.40;54.00;;;;;;5038766;28;19931;-57
2022/05/04 01:56:13;;;;;;;;;;;21.40;54.60;;;;;;5037988;28;19920;-57
2022/05/04 01:58:38;;;;;;;;;;;21.40;54.00;;;;;;5020289;28;19936;-57
2022/05/04 02:01:04;;;;;;;;;;;21.40;54.00;;;;;;5039077;28;19913;-58
2022/05/04 02:03:29;;;;;;;;;;;21.40;54.00;;;;;;5038504;28;20557;-55
2022/05/04 02:05:55;;;;;;;;;;;21.30;53.90;;;;;;5038977;28;19913;-57
2022/05/04 02:08:20;;;;;;;;;;;21.40;54.00;;;;;;5020901;28;19971;-57
2022/05/04 02:10:46;;;;;;;;;;;21.30;53.90;;;;;;5020636;28;19978;-55
2022/05/04 02:13:11;;;;;;;;;;;21.30;53.90;;;;;;5039956;28;20591;-59
2022/05/04 02:15:37;;;;;;;;;;;21.30;53.90;;;;;;5038889;28;19917;-54
2022/05/04 02:18:02;;;;;;;;;;;21.30;53.90;;;;;;5038547;28;20311;-54
2022/05/04 02:20:27;;;;;;;;;;;21.30;53.90;;;;;;5038636;28;20020;-56
2022/05/04 02:22:53;;;;;;;;;;;21.30;54.00;;;;;;5039025;28;20477;-56
2022/05/04 02:25:18;;;;;;;;;;;21.30;53.90;;;;;;5021164;28;19916;-56
2022/05/04 02:27:44;;;;;;;;;;;21.30;53.90;;;;;;5039223;28;20008;-58
2022/05/04 02:30:09;;;;;;;;;;;21.30;53.90;;;;;;5039530;28;19912;-55
2022/05/04 02:32:35;;;;;;;;;;;21.30;53.90;;;;;;5037181;28;20356;-54
2022/05/04 02:38:01;;;;;;;;;;;21.30;53.90;;;;;;4957978;28;19922;-55
2022/05/04 02:40:27;;;;;;;;;;;21.30;53.80;;;;;;5021444;28;19913;-57
2022/05/04 02:42:53;;;;;;;;;;;21.30;53.90;;;;;;5038868;28;19917;-54
2022/05/04 02:45:19;;;;;;;;;;;21.30;53.90;;;;;;5039171;28;19913;-56
2022/05/04 02:47:44;;;;;;;;;;;21.30;53.80;;;;;;5040193;28;19920;-56
2022/05/04 02:50:09;;;;;;;;;;;21.30;53.80;;;;;;5039491;28;19913;-55
2022/05/04 02:52:35;;;;;;;;;;;21.20;53.80;;;;;;5039231;28;19913;-56
2022/05/04 02:55:01;;;;;;;;;;;21.30;53.80;;;;;;5039082;28;19916;-54
2022/05/04 02:57:26;;;;;;;;;;;21.20;53.80;;;;;;5039064;28;19920;-56
2022/05/04 02:59:52;;;;;;;;;;;21.30;53.80;;;;;;5038991;28;19919;-56
2022/05/04 03:02:29;;;;;;;;;;;21.20;53.80;;;;;;5047229;28;20266;-57
2022/05/04 03:04:58;;;;;;;;;;;21.20;54.40;;;;;;5059862;28;19920;-57
2022/05/04 03:07:24;;;;;;;;;;;21.30;53.80;;;;;;5041504;28;19912;-53
2022/05/04 03:09:49;;;;;;;;;;;21.20;53.80;;;;;;5058816;28;19982;-57
2022/05/04 03:12:15;;;;;;;;;;;21.20;53.80;;;;;;5064114;28;19944;-57
2022/05/04 03:14:40;;;;;;;;;;;21.20;53.80;;;;;;5063683;28;20664;-56
2022/05/04 03:17:06;;;;;;;;;;;21.20;53.80;;;;;;5063342;28;19923;-58
2022/05/04 03:19:31;;;;;;;;;;;21.20;53.80;;;;;;5062517;28;19912;-55
2022/05/04 03:21:57;;;;;;;;;;;21.20;53.70;;;;;;5061318;28;19916;-57
2022/05/04 03:24:22;;;;;;;;;;;21.20;53.80;;;;;;5043388;28;20300;-56
2022/05/04 03:26:47;;;;;;;;;;;21.20;53.80;;;;;;5043533;28;20018;-56
2022/05/04 03:29:13;;;;;;;;;;;21.20;53.80;;;;;;5043063;28;19912;-56
2022/05/04 03:31:39;;;;;;;;;;;21.20;53.70;;;;;;5042720;28;19917;-57
2022/05/04 03:34:04;;;;;;;;;;;21.20;53.70;;;;;;5042757;28;19920;-56
2022/05/04 03:36:30;;;;;;;;;;;21.20;53.70;;;;;;5043761;28;19917;-54
2022/05/04 03:38:55;;;;;;;;;;;21.20;53.70;;;;;;5043043;28;19999;-57
2022/05/04 03:41:21;;;;;;;;;;;21.10;53.70;;;;;;5043370;28;19991;-56
2022/05/04 03:43:46;;;;;;;;;;;21.10;53.60;;;;;;5042256;28;19920;-55
2022/05/04 03:46:13;;;;;;;;;;;21.20;53.70;;;;;;5042426;28;19964;-57
2022/05/04 03:48:38;;;;;;;;;;;21.10;53.70;;;;;;5041501;28;19996;-57
2022/05/04 03:51:04;;;;;;;;;;;21.20;53.70;;;;;;5042087;28;20173;-53
2022/05/04 03:53:30;;;;;;;;;;;21.10;53.70;;;;;;5041603;28;19913;-57
2022/05/04 03:55:55;;;;;;;;;;;21.10;53.70;;;;;;5042049;28;19916;-56
2022/05/04 03:58:21;;;;;;;;;;;21.10;53.60;;;;;;5041577;28;19960;-54
2022/05/04 04:00:46;;;;;;;;;;;21.10;53.60;;;;;;5041656;28;20526;-60
2022/05/04 04:03:12;;;;;;;;;;;21.10;53.70;;;;;;5041865;28;19940;-57
2022/05/04 04:05:37;;;;;;;;;;;21.10;53.70;;;;;;5041346;28;19912;-52
2022/05/04 04:08:03;;;;;;;;;;;21.10;53.60;;;;;;5039376;28;19917;-54
2022/05/04 04:10:28;;;;;;;;;;;21.10;53.70;;;;;;5041089;28;20400;-57
2022/05/04 04:12:53;;;;;;;;;;;21.10;53.60;;;;;;5044540;28;19924;-55
2022/05/04 04:15:19;;;;;;;;;;;21.10;53.60;;;;;;5062034;28;19924;-57
2022/05/04 04:17:46;;;;;;;;;;;21.10;53.70;;;;;;5061243;28;20282;-56
2022/05/04 04:22:55;;;;;;;;;;;21.10;53.60;;;;;;5060597;28;19967;-57
2022/05/04 04:25:21;;;;;;;;;;;21.10;53.60;;;;;;5061550;28;19913;-57
2022/05/04 04:27:46;;;;;;;;;;;21.10;53.60;;;;;;5061582;28;19920;-54
2022/05/04 04:30:12;;;;;;;;;;;21.10;53.50;;;;;;5061641;28;20427;-56
2022/05/04 04:32:38;;;;;;;;;;;21.10;53.50;;;;;;5061096;28;19977;-55
2022/05/04 04:35:03;;;;;;;;;;;21.10;53.50;;;;;;5060987;28;19916;-56
2022/05/04 04:37:29;;;;;;;;;;;21.10;53.50;;;;;;5061808;28;20012;-56
2022/05/04 04:39:54;;;;;;;;;;;21.10;53.50;;;;;;5060800;28;19918;-53
2022/05/04 04:42:20;;;;;;;;;;;21.10;53.50;;;;;;5061644;28;19917;-56
2022/05/04 04:44:45;;;;;;;;;;;21.10;54.20;;;;;;5061371;28;20381;-50
2022/05/04 04:47:10;;;;;;;;;;;21.20;54.00;;;;;;5061787;28;19934;-55
2022/05/04 04:49:36;;;;;;;;;;;21.20;54.40;;;;;;5061475;28;19944;-56
2022/05/04 04:52:02;;;;;;;;;;;21.30;54.50;;;;;;5062287;28;19916;-57
2022/05/04 04:54:27;;;;;;;;;;;21.40;54.20;;;;;;5051367;28;20481;-55
2022/05/04 04:56:53;;;;;;;;;;;21.50;54.40;;;;;;5047432;22;20315;-55
2022/05/04 04:59:18;;;;;;;;;;;21.50;54.30;;;;;;5032196;28;19971;-54
2022/05/04 05:01:43;;;;;;;;;;;21.60;54.10;;;;;;5018165;28;19924;-56
2022/05/04 05:04:09;;;;;;;;;;;21.70;54.10;;;;;;5024850;28;20374;-55
2022/05/04 05:06:34;;;;;;;;;;;21.60;54.10;;;;;;5038338;28;19912;-55
2022/05/04 05:09:00;;;;;;;;;;;21.70;54.10;;;;;;5039168;28;19996;-56
2022/05/04 05:11:25;;;;;;;;;;;21.60;54.10;;;;;;5037698;28;20137;-57
2022/05/04 05:16:35;;;;;;;;;;;21.60;54.10;;;;;;5038758;28;20152;-56
2022/05/04 05:19:00;;;;;;;;;;;21.60;54.20;;;;;;5038752;28;20440;-55
2022/05/04 05:21:26;;;;;;;;;;;21.60;54.20;;;;;;5037515;28;19919;-56
2022/05/04 05:23:51;;;;;;;;;;;21.60;54.20;;;;;;5039802;28;19925;-57
2022/05/04 05:26:16;;;;;;;;;;;21.60;54.20;;;;;;5041212;28;19938;-54
2022/05/04 05:28:42;;;;;;;;;;;21.60;54.20;;;;;;5038254;28;19920;-55
2022/05/04 05:31:08;;;;;;;;;;;21.50;54.10;;;;;;5038981;28;19917;-57
2022/05/04 05:33:34;;;;;;;;;;;21.60;54.20;;;;;;5035259;28;19912;-58
2022/05/04 05:35:59;;;;;;;;;;;21.50;54.40;;;;;;5036534;28;19916;-57
2022/05/04 05:38:28;;;;;;;;;;;21.60;54.60;;;;;;5038992;28;19917;-56
2022/05/04 05:40:53;;;;;;;;;;;21.50;54.50;;;;;;5038685;28;19913;-56
2022/05/04 05:43:19;;;;;;;;;;;21.50;54.70;;;;;;5039337;28;19917;-54
2022/05/04 05:45:44;;;;;;;;;;;21.50;56.60;;;;;;5038270;28;19921;-60
2022/05/04 05:48:10;;;;;;;;;;;21.50;55.60;;;;;;5039237;28;19913;-58
2022/05/04 05:50:35;;;;;;;;;;;21.40;55.60;;;;;;5038172;28;19917;-58
2022/05/04 05:53:02;;;;;;;;;;;21.40;55.70;;;;;;5038285;28;20421;-64
2022/05/04 05:55:27;;;;;;;;;;;21.40;55.80;;;;;;5037923;28;20399;-65
2022/05/04 05:57:53;;;;;;;;;;;21.40;55.80;;;;;;5037676;28;19940;-60
2022/05/04 06:00:18;;;;;;;;;;;21.40;55.90;;;;;;5038729;28;20255;-55
2022/05/04 06:02:45;;;;;;;;;;;21.40;55.70;;;;;;5039120;28;19924;-64
2022/05/04 06:05:10;;;;;;;;;;;21.40;55.70;;;;;;5039385;28;19917;-58
2022/05/04 06:07:36;;;;;;;;;;;21.40;55.70;;;;;;5039542;28;19917;-61
2022/05/04 06:10:02;;;;;;;;;;;21.30;55.60;;;;;;5038277;28;20198;-66
2022/05/04 06:12:28;;;;;;;;;;;21.30;55.60;;;;;;5039184;28;20008;-66
2022/05/04 06:14:53;;;;;;;;;;;21.30;55.60;;;;;;5038773;28;19963;-62
2022/05/04 06:17:19;;;;;;;;;;;21.30;55.70;;;;;;5039108;28;19913;-59
2022/05/04 06:19:44;;;;;;;;;;;21.30;55.60;;;;;;5038125;28;19913;-57
2022/05/04 06:22:09;;;;;;;;;;;21.40;55.80;;;;;;5038856;28;19925;-55
2022/05/04 06:24:35;;;;;;;;;;;21.40;55.80;;;;;;5038703;28;20528;-57
2022/05/04 06:27:00;;;;;;;;;;;21.40;55.40;;;;;;5038367;28;19944;-57
2022/05/04 06:34:54;;;;;;;;;;;21.40;54.90;;;;;;5037803;28;20435;-58
2022/05/04 06:37:20;;;;;;;;;;;21.40;54.70;;;;;;5039107;28;19917;-55
2022/05/04 06:39:45;;;;;;;;;;;21.40;54.70;;;;;;5038995;28;19913;-57
2022/05/04 06:42:11;;;;;;;;;;;21.40;54.60;;;;;;5038727;28;19917;-58
2022/05/04 06:44:37;;;;;;;;;;;21.40;54.80;;;;;;5038077;28;20437;-56
2022/05/04 06:47:03;;;;;;;;;;;21.40;54.70;;;;;;5038247;28;19927;-56
2022/05/04 06:49:28;;;;;;;;;;;21.40;54.80;;;;;;5038229;28;19940;-56
2022/05/04 06:51:54;;;;;;;;;;;21.40;54.90;;;;;;5038973;28;20393;-56
2022/05/04 06:54:19;;;;;;;;;;;21.40;55.10;;;;;;5039954;28;19913;-57
2022/05/04 06:56:44;;;;;;;;;;;21.40;54.80;;;;;;5038258;28;21733;-57
2022/05/04 06:59:10;;;;;;;;;;;21.40;54.50;;;;;;5038032;28;19954;-57
2022/05/04 07:01:35;;;;;;;;;;;21.40;54.60;;;;;;5027419;28;20397;-57
2022/05/04 07:04:01;;;;;;;;;;;21.30;54.30;;;;;;5038312;28;20389;-55
2022/05/04 07:06:26;;;;;;;;;;;21.30;54.30;;;;;;5038410;28;19978;-57
2022/05/04 07:08:52;;;;;;;;;;;21.30;54.20;;;;;;5038444;28;19920;-56
2022/05/04 07:11:17;;;;;;;;;;;21.30;54.20;;;;;;5021339;28;19913;-58
2022/05/04 07:13:43;;;;;;;;;;;21.30;54.00;;;;;;5038629;28;19991;-56
2022/05/04 07:16:09;;;;;;;;;;;21.30;54.00;;;;;;5038231;28;19924;-57
2022/05/04 07:18:35;;;;;;;;;;;21.30;54.00;;;;;;5037755;28;20054;-58
2022/05/04 07:21:01;;;;;;;;;;;21.30;54.00;;;;;;5037981;28;19913;-57
2022/05/04 07:23:26;;;;;;;;;;;21.30;54.20;;;;;;5038434;28;19966;-57
2022/05/04 07:25:51;;;;;;;;;;;21.30;54.90;;;;;;5039623;28;19920;-56
2022/05/04 07:28:17;;;;;;;;;;;21.30;55.30;;;;;;5038059;28;19916;-58
2022/05/04 07:30:42;;;;;;;;;;;21.30;55.30;;;;;;5037986;28;19920;-57
2022/05/04 07:33:08;;;;;;;;;;;21.30;55.30;;;;;;5020134;28;19917;-57
2022/05/04 07:35:33;;;;;;;;;;;21.30;55.20;;;;;;5037449;28;20336;-56
2022/05/04 07:37:59;;;;;;;;;;;21.30;55.20;;;;;;5019658;28;19913;-57
2022/05/04 07:43:08;;;;;;;;;;;21.30;55.30;;;;;;5037733;28;20129;-56
2022/05/04 07:45:34;;;;;;;;;;;21.30;55.30;;;;;;5037843;28;19917;-56
2022/05/04 07:47:59;;;;;;;;;;;21.30;55.40;;;;;;5037675;28;19920;-58
2022/05/04 07:50:25;;;;;;;;;;;21.30;55.40;;;;;;5038206;28;19961;-56
2022/05/04 07:52:51;;;;;;;;;;;21.30;55.50;;;;;;5038062;28;19920;-58
2022/05/04 07:55:16;;;;;;;;;;;21.30;55.50;;;;;;5037530;28;20583;-57
2022/05/04 07:57:47;;;;;;;;;;;21.30;55.50;;;;;;5038784;28;19924;-57
2022/05/04 08:05:41;;;;;;;;;;;21.30;55.50;;;;;;5040805;28;19919;-58
2022/05/04 08:08:06;;;;;;;;;;;21.30;55.60;;;;;;5040901;28;19917;-56
2022/05/04 08:10:32;;;;;;;;;;;21.30;55.60;;;;;;5040566;28;20015;-56
2022/05/04 08:12:58;;;;;;;;;;;21.30;55.60;;;;;;5041676;28;19967;-58
2022/05/04 08:15:24;;;;;;;;;;;21.30;55.60;;;;;;5041689;28;20390;-50
2022/05/04 08:17:49;;;;;;;;;;;21.30;55.60;;;;;;5023991;28;20253;-59
2022/05/04 08:20:15;;;;;;;;;;;21.30;55.60;;;;;;5040925;28;20288;-57
2022/05/04 08:22:40;;;;;;;;;;;21.30;55.60;;;;;;5022936;28;19921;-57
2022/05/04 08:25:06;;;;;;;;;;;21.20;55.60;;;;;;5041305;28;19923;-56
2022/05/04 08:27:32;;;;;;;;;;;21.20;55.60;;;;;;5042106;28;19966;-57
2022/05/04 08:29:58;;;;;;;;;;;21.20;55.60;;;;;;5041111;28;20275;-56
2022/05/04 08:32:29;;;;;;;;;;;21.20;55.60;;;;;;5040750;28;20177;-48
2022/05/04 08:34:55;;;;;;;;;;;21.20;55.60;;;;;;5023351;28;20513;-56
2022/05/04 08:37:20;;;;;;;;;;;21.20;55.60;;;;;;5040285;28;19952;-56
2022/05/04 08:39:46;;;;;;;;;;;21.20;55.60;;;;;;5039381;28;19913;-55
2022/05/04 08:42:13;;;;;;;;;;;21.30;55.70;;;;;;5040459;28;19971;-55
2022/05/04 08:44:39;;;;;;;;;;;21.20;55.60;;;;;;5041162;28;19917;-57
2022/05/04 08:47:05;;;;;;;;;;;21.20;55.60;;;;;;5023056;28;19940;-57
2022/05/04 08:49:30;;;;;;;;;;;21.20;56.30;;;;;;5039600;28;20294;-56
2022/05/04 08:51:56;;;;;;;;;;;21.20;55.70;;;;;;5040544;28;19919;-55
2022/05/04 08:54:21;;;;;;;;;;;21.20;55.60;;;;;;5022799;28;19919;-55
2022/05/04 08:56:47;;;;;;;;;;;21.20;55.70;;;;;;5022095;28;19920;-57
2022/05/04 08:59:12;;;;;;;;;;;21.20;55.70;;;;;;5039350;28;19916;-56
2022/05/04 09:01:38;;;;;;;;;;;21.20;55.70;;;;;;5040662;28;19920;-58
2022/05/04 09:04:03;;;;;;;;;;;21.20;55.70;;;;;;5040093;28;19924;-56
2022/05/04 09:06:29;;;;;;;;;;;21.20;55.70;;;;;;5040297;28;20103;-56
2022/05/04 09:09:03;;;;;;;;;;;21.20;55.70;;;;;;5039329;28;19913;-54
2022/05/04 09:11:28;;;;;;;;;;;21.20;55.70;;;;;;5040009;28;19913;-57
2022/05/04 09:13:54;;;;;;;;;;;21.20;55.60;;;;;;5040539;28;19974;-56
2022/05/04 09:16:26;;;;;;;;;;;21.20;55.60;;;;;;5040003;28;19940;-55
2022/05/04 09:18:52;;;;;;;;;;;21.20;55.60;;;;;;5038687;28;20432;-56
2022/05/04 09:21:21;;;;;;;;;;;21.20;55.60;;;;;;5040377;28;19913;-53
2022/05/04 09:23:53;;;;;;;;;;;21.20;55.60;;;;;;5023716;28;20562;-56
2022/05/04 09:26:20;;;;;;;;;;;21.20;55.60;;;;;;5007688;28;19914;-56
2022/05/04 09:28:49;;;;;;;;;;;21.20;55.60;;;;;;5004318;28;19921;-58
2022/05/04 09:31:14;;;;;;;;;;;21.20;55.60;;;;;;5006919;28;19913;-57
2022/05/04 09:33:40;;;;;;;;;;;21.20;55.60;;;;;;5005927;28;19968;-58
2022/05/04 09:36:05;;;;;;;;;;;21.20;55.60;;;;;;5006261;28;19920;-56
2022/05/04 09:46:45;;;;;;;;;;;21.20;55.60;;;;;;5020680;28;19920;-57
2022/05/04 09:49:11;;;;;;;;;;;21.20;55.60;;;;;;5019736;28;20031;-52
2022/05/04 09:51:37;;;;;;;;;;;21.20;55.60;;;;;;5019875;28;20008;-56
2022/05/04 09:54:38;;;;;;;;;;;21.20;55.60;;;;;;5019390;28;20493;-55
2022/05/04 09:57:04;;;;;;;;;;;21.10;55.50;;;;;;4996690;28;20132;-55
2022/05/04 09:59:30;;;;;;;;;;;21.20;55.60;;;;;;5014076;28;19917;-57
2022/05/04 10:01:56;;;;;;;;;;;21.20;55.60;;;;;;5018035;28;19917;-57
2022/05/04 10:04:23;;;;;;;;;;;21.20;55.60;;;;;;5019567;28;19921;-57
2022/05/04 10:06:48;;;;;;;;;;;21.20;55.60;;;;;;5019956;28;19913;-56
2022/05/04 10:09:14;;;;;;;;;;;21.20;55.60;;;;;;5019253;28;20035;-57
2022/05/04 10:11:39;;;;;;;;;;;21.20;55.50;;;;;;5019381;28;19917;-57
2022/05/04 10:14:08;;;;;;;;;;;21.20;55.50;;;;;;5019365;28;19960;-55
2022/05/04 10:16:36;;;;;;;;;;;21.20;55.50;;;;;;5019511;28;19962;-57
2022/05/04 10:19:02;;;;;;;;;;;21.20;55.50;;;;;;5017465;28;20538;-57
2022/05/04 10:21:27;;;;;;;;;;;21.20;55.50;;;;;;5018574;28;19957;-57
2022/05/04 10:23:57;;;;;;;;;;;21.20;55.40;;;;;;5019329;28;19951;-56
2022/05/04 10:26:35;;;;;;;;;;;21.20;55.40;;;;;;5020063;28;19913;-55
2022/05/04 10:31:51;;;;;;;;;;;21.20;55.40;;;;;;5037615;28;20328;-56
2022/05/04 10:34:17;;;;;;;;;;;21.20;55.40;;;;;;5039222;28;19982;-57
2022/05/04 10:36:45;;;;;;;;;;;21.20;55.40;;;;;;5039085;28;20397;-57
2022/05/04 10:39:10;;;;;;;;;;;21.20;55.40;;;;;;5038176;28;19917;-58
2022/05/04 10:41:36;;;;;;;;;;;21.20;55.50;;;;;;5036953;28;20401;-57
2022/05/04 10:44:02;;;;;;;;;;;21.20;55.50;;;;;;5038506;28;19928;-58
2022/05/04 10:46:30;;;;;;;;;;;21.20;55.50;;;;;;5039365;28;20409;-58
2022/05/04 10:48:56;;;;;;;;;;;21.20;55.50;;;;;;5038539;28;19953;-57
2022/05/04 10:51:24;;;;;;;;;;;21.20;55.50;;;;;;5021378;28;19947;-55
2022/05/04 10:53:53;;;;;;;;;;;21.20;55.50;;;;;;5019020;28;20199;-57
2022/05/04 10:56:19;;;;;;;;;;;21.20;55.50;;;;;;5022022;28;20301;-57
2022/05/04 10:58:45;;;;;;;;;;;21.20;55.50;;;;;;5037828;28;20019;-58
2022/05/04 11:01:17;;;;;;;;;;;21.20;55.50;;;;;;5038359;28;19978;-57
2022/05/04 11:03:50;;;;;;;;;;;21.20;55.50;;;;;;5038719;28;20561;-57
2022/05/04 11:06:22;;;;;;;;;;;21.20;55.40;;;;;;5038735;28;20400;-59
2022/05/04 11:08:48;;;;;;;;;;;21.20;55.50;;;;;;5037775;28;20026;-58
2022/05/04 11:11:14;;;;;;;;;;;21.20;55.50;;;;;;5038086;28;19923;-54
2022/05/04 11:13:39;;;;;;;;;;;21.20;55.50;;;;;;5037999;28;20290;-56
2022/05/04 11:16:05;;;;;;;;;;;21.20;55.40;;;;;;5020422;28;19913;-55
2022/05/04 11:18:30;;;;;;;;;;;21.20;55.40;;;;;;5037896;28;19921;-57
2022/05/04 11:20:56;;;;;;;;;;;21.20;55.40;;;;;;5039268;28;19936;-56
2022/05/04 11:23:24;;;;;;;;;;;21.20;55.40;;;;;;5037797;28;20440;-55
2022/05/04 11:25:50;;;;;;;;;;;21.20;55.40;;;;;;5037832;28;19917;-55
2022/05/04 11:28:19;;;;;;;;;;;21.20;55.40;;;;;;5037876;28;22670;-57
2022/05/04 11:30:45;;;;;;;;;;;21.20;55.40;;;;;;5037702;28;19920;-56
2022/05/04 11:33:14;;;;;;;;;;;21.20;55.40;;;;;;5041903;28;20282;-55
2022/05/04 11:35:41;;;;;;;;;;;21.30;55.40;;;;;;5041913;28;19913;-54
2022/05/04 11:38:06;;;;;;;;;;;21.20;55.30;;;;;;5041591;28;19967;-54
2022/05/04 11:40:32;;;;;;;;;;;21.30;55.40;;;;;;5041694;28;19917;-55
2022/05/04 11:42:57;;;;;;;;;;;21.30;56.00;;;;;;5041798;28;19917;-55
2022/05/04 11:45:23;;;;;;;;;;;21.30;55.40;;;;;;5041275;28;20015;-56
2022/05/04 11:47:48;;;;;;;;;;;21.30;56.10;;;;;;5023172;28;19913;-56
2022/05/04 11:50:14;;;;;;;;;;;21.20;55.40;;;;;;5023478;28;20019;-57
2022/05/04 11:52:40;;;;;;;;;;;21.30;55.40;;;;;;5041640;28;19913;-56
2022/05/04 11:55:06;;;;;;;;;;;21.30;55.40;;;;;;5041681;28;20011;-57
2022/05/04 11:57:39;;;;;;;;;;;21.30;55.40;;;;;;5042363;28;20405;-55
2022/05/04 12:00:14;;;;;;;;;;;21.30;55.40;;;;;;5041510;28;19912;-56
2022/05/04 12:02:40;;;;;;;;;;;21.30;55.30;;;;;;5041119;28;19923;-54
2022/05/04 12:05:05;;;;;;;;;;;21.30;55.30;;;;;;5041946;28;19913;-56
2022/05/04 12:07:31;;;;;;;;;;;21.30;55.30;;;;;;5022913;28;19913;-56
2022/05/04 12:09:56;;;;;;;;;;;21.30;55.30;;;;;;5039979;28;19920;-54
2022/05/04 12:12:23;;;;;;;;;;;21.30;55.30;;;;;;4995392;28;21925;-56
2022/05/04 12:14:51;;;;;;;;;;;21.30;55.30;;;;;;5023134;28;19919;-56
2022/05/04 12:17:17;;;;;;;;;;;21.30;55.30;;;;;;5041358;28;19925;-55
2022/05/04 12:19:45;;;;;;;;;;;21.40;55.40;;;;;;5022784;28;19955;-53
2022/05/04 12:22:11;;;;;;;;;;;21.30;55.30;;;;;;5022625;28;19920;-56
2022/05/04 12:24:36;;;;;;;;;;;21.30;55.30;;;;;;5041627;28;20306;-56
2022/05/04 12:27:02;;;;;;;;;;;21.30;55.30;;;;;;5030358;28;19921;-56
2022/05/04 12:34:59;;;;;;;;;;;21.30;55.30;;;;;;5011329;28;20161;-54
2022/05/04 12:37:29;;;;;;;;;;;21.40;55.40;;;;;;5021527;28;19945;-56
2022/05/04 12:39:55;;;;;;;;;;;21.30;55.40;;;;;;5014278;28;19917;-56
2022/05/04 12:42:20;;;;;;;;;;;21.30;55.30;;;;;;5019183;28;19924;-56
2022/05/04 12:44:49;;;;;;;;;;;21.30;55.40;;;;;;5019697;28;19963;-55
2022/05/04 12:47:15;;;;;;;;;;;21.40;55.40;;;;;;5020895;28;19953;-55
2022/05/04 12:49:40;;;;;;;;;;;21.40;55.40;;;;;;5021228;28;19914;-57
2022/05/04 12:52:06;;;;;;;;;;;21.40;55.30;;;;;;5021574;28;19917;-56
2022/05/04 12:54:32;;;;;;;;;;;21.40;55.30;;;;;;5020519;28;19920;-54
2022/05/04 12:56:58;;;;;;;;;;;21.40;55.30;;;;;;5029672;28;20393;-56
2022/05/04 12:59:23;;;;;;;;;;;21.40;55.30;;;;;;5040474;28;20440;-58
2022/05/04 13:01:49;;;;;;;;;;;21.40;55.30;;;;;;5040427;28;19913;-57
2022/05/04 13:04:15;;;;;;;;;;;21.40;55.40;;;;;;5041547;28;19919;-55
2022/05/04 13:06:41;;;;;;;;;;;21.40;55.40;;;;;;5041250;28;19913;-56
2022/05/04 13:09:07;;;;;;;;;;;21.40;55.40;;;;;;5040244;28;19921;-53
2022/05/04 13:11:32;;;;;;;;;;;21.40;55.30;;;;;;5040532;28;19923;-57
2022/05/04 13:13:58;;;;;;;;;;;21.40;55.30;;;;;;5021737;28;19923;-56
2022/05/04 13:16:23;;;;;;;;;;;21.40;55.40;;;;;;5040353;28;20366;-57
2022/05/04 13:18:49;;;;;;;;;;;21.50;55.40;;;;;;5038965;28;20352;-58
2022/05/04 13:21:15;;;;;;;;;;;21.40;55.40;;;;;;5040543;28;19913;-56
2022/05/04 13:23:42;;;;;;;;;;;21.40;55.40;;;;;;5040046;28;19998;-56
2022/05/04 13:26:09;;;;;;;;;;;21.50;55.40;;;;;;5039938;28;19913;-57
2022/05/04 13:28:35;;;;;;;;;;;21.40;55.30;;;;;;5039182;28;19944;-56
2022/05/04 13:31:00;;;;;;;;;;;21.50;55.30;;;;;;5039801;28;19917;-56
2022/05/04 13:33:26;;;;;;;;;;;21.40;55.40;;;;;;5039776;28;20382;-57
2022/05/04 13:35:51;;;;;;;;;;;21.40;55.30;;;;;;5040144;28;19998;-55
2022/05/04 13:38:17;;;;;;;;;;;21.50;55.40;;;;;;5039474;28;19989;-54
2022/05/04 13:40:43;;;;;;;;;;;21.50;55.40;;;;;;5039218;28;19924;-53
2022/05/04 13:43:08;;;;;;;;;;;21.50;55.30;;;;;;5021359;28;20073;-56
2022/05/04 13:45:34;;;;;;;;;;;21.50;55.40;;;;;;5038184;28;19924;-57
2022/05/04 13:47:59;;;;;;;;;;;21.50;55.30;;;;;;5038997;28;19913;-57
2022/05/04 13:53:15;;;;;;;;;;;21.50;55.30;;;;;;5039101;28;20217;-52
2022/05/04 13:55:43;;;;;;;;;;;21.50;55.30;;;;;;5038949;28;19988;-55
2022/05/04 13:58:09;;;;;;;;;;;21.50;55.30;;;;;;5038494;28;20390;-55
2022/05/04 14:00:35;;;;;;;;;;;21.50;55.30;;;;;;5038855;28;20004;-57
2022/05/04 14:03:01;;;;;;;;;;;21.50;55.30;;;;;;5038515;28;19916;-56
2022/05/04 14:05:26;;;;;;;;;;;21.50;55.30;;;;;;5039853;28;19995;-57
2022/05/04 14:07:52;;;;;;;;;;;21.50;55.30;;;;;;5040045;28;19913;-57
2022/05/04 14:10:18;;;;;;;;;;;21.50;55.30;;;;;;5038043;28;19928;-56
2022/05/04 14:12:43;;;;;;;;;;;21.50;55.30;;;;;;5039619;28;20250;-59
2022/05/04 14:15:09;;;;;;;;;;;21.50;55.30;;;;;;5038115;28;19917;-59
2022/05/04 14:17:34;;;;;;;;;;;21.50;55.30;;;;;;5038920;28;19967;-55
2022/05/04 14:20:00;;;;;;;;;;;21.50;55.30;;;;;;5038387;28;19997;-55
2022/05/04 14:22:25;;;;;;;;;;;21.50;55.20;;;;;;5040467;28;19916;-55
2022/05/04 14:24:53;;;;;;;;;;;21.50;55.30;;;;;;5038354;28;26998;-54
2022/05/04 14:27:18;;;;;;;;;;;21.60;55.30;;;;;;5038699;28;20109;-57
2022/05/04 14:29:44;;;;;;;;;;;21.50;55.30;;;;;;5037378;28;20306;-55
2022/05/04 14:32:09;;;;;;;;;;;21.50;55.30;;;;;;5038219;28;19912;-56
2022/05/04 14:34:35;;;;;;;;;;;21.50;55.30;;;;;;5038223;28;19917;-57
2022/05/04 14:37:00;;;;;;;;;;;21.50;55.30;;;;;;5038474;28;20378;-57
2022/05/04 14:39:26;;;;;;;;;;;21.50;55.30;;;;;;5020930;28;19913;-57
2022/05/04 14:41:51;;;;;;;;;;;21.50;55.30;;;;;;5038787;28;20145;-57
2022/05/04 14:44:17;;;;;;;;;;;21.50;55.40;;;;;;5038842;28;20397;-57
2022/05/04 14:46:42;;;;;;;;;;;21.50;55.30;;;;;;5038467;28;19948;-56
2022/05/04 14:49:08;;;;;;;;;;;21.50;55.30;;;;;;5037538;28;19912;-56
2022/05/04 14:51:33;;;;;;;;;;;21.50;55.30;;;;;;5039082;28;19923;-56
2022/05/04 14:53:59;;;;;;;;;;;21.50;55.20;;;;;;5021218;28;19919;-57
2022/05/04 14:56:24;;;;;;;;;;;21.60;55.30;;;;;;5038851;28;20336;-57